createdAt,value
2022-12-14T00:02:32.890Z,-4.70
2022-12-14T00:05:24.777Z,-4.80
2022-12-14T00:07:55.230Z,-4.70
2022-12-14T00:10:41.033Z,-4.70
2022-12-14T00:13:16.392Z,-4.70
2022-12-14T00:15:53.447Z,-4.60
2022-12-14T00:18:36.621Z,-4.60
2022-12-14T00:21:12.616Z,-4.60
2022-12-14T00:24:13.640Z,-4.60
2022-12-14T00:27:05.468Z,-4.60
2022-12-14T00:30:19.141Z,-4.60
2022-12-14T00:33:03.941Z,-4.60
2022-12-14T00:35:50.025Z,-4.50
2022-12-14T00:38:21.368Z,-4.50
2022-12-14T00:40:56.014Z,-4.50
2022-12-14T00:43:29.399Z,-4.50
2022-12-14T00:46:20.587Z,-4.60
2022-12-14T00:49:09.864Z,-4.70
2022-12-14T00:51:44.051Z,-4.80
2022-12-14T00:54:33.401Z,-4.70
2022-12-14T01:03:30.079Z,-4.80
2022-12-14T01:06:18.465Z,-4.80
2022-12-14T01:08:59.394Z,-4.70
2022-12-14T01:11:39.999Z,-4.80
2022-12-14T01:14:51.433Z,-4.80
2022-12-14T01:18:09.211Z,-4.70
2022-12-14T01:20:57.667Z,-4.70
2022-12-14T01:23:47.788Z,-4.60
2022-12-14T01:26:22.494Z,-4.50
2022-12-14T01:29:17.476Z,-4.40
2022-12-14T01:32:05.783Z,-4.40
2022-12-14T01:34:39.554Z,-4.30
2022-12-14T01:37:16.901Z,-4.50
2022-12-14T01:39:50.780Z,-4.50
2022-12-14T01:42:30.696Z,-4.50
2022-12-14T01:45:01.945Z,-4.60
2022-12-14T01:47:40.225Z,-4.50
2022-12-14T01:50:18.416Z,-4.60
2022-12-14T01:52:52.731Z,-4.50
2022-12-14T01:55:27.129Z,-4.40
2022-12-14T01:58:04.953Z,-4.40
2022-12-14T02:00:39.936Z,-4.20
2022-12-14T02:03:14.630Z,-4.30
2022-12-14T02:05:54.320Z,-4.30
2022-12-14T02:08:35.901Z,-4.30
2022-12-14T02:11:12.187Z,-4.30
2022-12-14T02:13:42.341Z,-4.40
2022-12-14T02:16:14.050Z,-4.40
2022-12-14T02:18:57.106Z,-4.40
2022-12-14T02:21:34.022Z,-4.40
2022-12-14T02:24:23.551Z,-4.50
2022-12-14T02:30:16.950Z,-4.60
2022-12-14T02:33:09.166Z,-4.60
2022-12-14T02:36:00.990Z,-4.60
2022-12-14T02:38:33.184Z,-4.70
2022-12-14T02:41:12.737Z,-4.70
2022-12-14T02:43:56.185Z,-4.60
2022-12-14T02:46:31.773Z,-4.70
2022-12-14T02:49:09.621Z,-4.70
2022-12-14T02:51:54.436Z,-4.70
2022-12-14T02:54:30.078Z,-4.70
2022-12-14T02:57:05.853Z,-4.70
2022-12-14T02:59:35.584Z,-4.60
2022-12-14T03:02:13.193Z,-4.60
2022-12-14T03:04:50.262Z,-4.60
2022-12-14T03:07:43.038Z,-4.70
2022-12-14T03:10:20.550Z,-4.70
2022-12-14T03:13:04.470Z,-4.80
2022-12-14T03:15:39.707Z,-4.80
2022-12-14T03:18:12.360Z,-4.70
2022-12-14T03:20:46.870Z,-4.80
2022-12-14T03:23:28.606Z,-4.90
2022-12-14T03:26:07.912Z,-4.90
2022-12-14T03:28:45.097Z,-5.00
2022-12-14T03:31:20.403Z,-4.90
2022-12-14T03:34:13.100Z,-5.00
2022-12-14T03:36:46.103Z,-5.00
2022-12-14T03:39:30.325Z,-4.90
2022-12-14T03:42:05.280Z,-4.90
2022-12-14T03:44:49.512Z,-4.90
2022-12-14T03:47:31.411Z,-4.90
2022-12-14T03:50:01.865Z,-4.90
2022-12-14T03:52:37.774Z,-4.80
2022-12-14T03:55:22.449Z,-4.80
2022-12-14T03:58:17.775Z,-4.80
2022-12-14T04:00:54.429Z,-4.70
2022-12-14T04:03:28.358Z,-4.80
2022-12-14T04:06:05.446Z,-4.80
2022-12-14T04:08:42.901Z,-4.80
2022-12-14T04:11:33.620Z,-4.60
2022-12-14T04:14:21.783Z,-4.80
2022-12-14T04:17:17.316Z,-4.80
2022-12-14T04:19:56.844Z,-4.80
2022-12-14T04:22:33.224Z,-4.80
2022-12-14T04:25:22.257Z,-4.70
2022-12-14T04:27:57.154Z,-4.70
2022-12-14T04:30:24.430Z,-4.70
2022-12-14T04:32:58.376Z,-4.60
2022-12-14T04:35:37.391Z,-4.70
2022-12-14T04:38:20.599Z,-4.60
2022-12-14T04:41:07.119Z,-4.60
2022-12-14T04:43:43.295Z,-4.60
2022-12-14T04:46:16.434Z,-4.60
2022-12-14T04:48:57.169Z,-4.60
2022-12-14T04:51:29.571Z,-4.60
2022-12-14T04:54:10.324Z,-4.70
2022-12-14T04:56:46.600Z,-4.80
2022-12-14T04:59:18.308Z,-4.80
2022-12-14T05:01:58.834Z,-4.80
2022-12-14T05:04:42.136Z,-4.80
2022-12-14T05:07:19.179Z,-4.80
2022-12-14T05:09:56.805Z,-4.60
2022-12-14T05:12:35.387Z,-4.80
2022-12-14T05:15:10.977Z,-4.80
2022-12-14T05:17:51.542Z,-4.80
2022-12-14T05:20:23.677Z,-4.90
2022-12-14T05:22:55.065Z,-5.00
2022-12-14T05:25:28.468Z,-5.00
2022-12-14T05:28:05.303Z,-5.00
2022-12-14T05:30:36.478Z,-5.00
2022-12-14T05:33:38.513Z,-5.00
2022-12-14T05:36:11.104Z,-5.00
2022-12-14T05:39:05.097Z,-5.00
2022-12-14T05:41:38.359Z,-5.10
2022-12-14T05:44:09.210Z,-5.10
2022-12-14T05:46:42.031Z,-5.10
2022-12-14T05:49:13.173Z,-5.10
2022-12-14T05:51:44.189Z,-5.20
2022-12-14T05:54:16.924Z,-5.20
2022-12-14T05:56:45.841Z,-5.20
2022-12-14T05:59:16.458Z,-5.20
2022-12-14T06:01:52.812Z,-5.10
2022-12-14T06:04:35.586Z,-5.10
2022-12-14T06:07:07.900Z,-5.20
2022-12-14T06:09:45.180Z,-5.20
2022-12-14T06:12:14.266Z,-5.10
2022-12-14T06:14:44.964Z,-5.20
2022-12-14T06:17:26.554Z,-5.20
2022-12-14T06:20:01.488Z,-5.20
2022-12-14T06:22:39.482Z,-5.10
2022-12-14T06:25:23.858Z,-5.10
2022-12-14T06:27:58.715Z,-5.20
2022-12-14T06:30:29.153Z,-5.20
2022-12-14T06:33:19.143Z,-5.20
2022-12-14T06:36:00.462Z,-5.20
2022-12-14T06:38:38.372Z,-5.20
2022-12-14T06:41:10.272Z,-5.30
2022-12-14T06:43:40.172Z,-5.50
2022-12-14T06:46:15.844Z,-5.20
2022-12-14T06:48:55.901Z,-5.20
2022-12-14T06:51:29.413Z,-5.20
2022-12-14T06:54:02.750Z,-5.20
2022-12-14T06:56:42.593Z,-5.10
2022-12-14T06:59:24.250Z,-5.10
2022-12-14T07:01:53.109Z,-5.20
2022-12-14T07:04:31.182Z,-5.20
2022-12-14T07:07:08.813Z,-5.20
2022-12-14T07:09:38.126Z,-5.30
2022-12-14T07:12:10.806Z,-5.40
2022-12-14T07:14:41.696Z,-5.40
2022-12-14T07:17:15.929Z,-5.50
2022-12-14T07:19:49.240Z,-5.40
2022-12-14T07:22:20.797Z,-5.50
2022-12-14T07:24:53.807Z,-5.40
2022-12-14T07:27:31.111Z,-5.40
2022-12-14T07:30:04.462Z,-5.50
2022-12-14T07:32:46.862Z,-5.40
2022-12-14T07:35:26.643Z,-5.40
2022-12-14T07:37:59.630Z,-5.40
2022-12-14T07:40:30.108Z,-5.30
2022-12-14T07:43:01.500Z,-5.40
2022-12-14T07:45:45.671Z,-5.40
2022-12-14T07:48:17.507Z,-5.40
2022-12-14T07:50:52.107Z,-5.40
2022-12-14T07:53:38.455Z,-5.20
2022-12-14T07:56:19.221Z,-5.20
2022-12-14T07:58:51.880Z,-5.10
2022-12-14T08:01:24.230Z,-5.10
2022-12-14T08:03:59.366Z,-5.20
2022-12-14T08:06:32.133Z,-5.00
2022-12-14T08:09:04.685Z,-4.80
2022-12-14T08:11:44.595Z,-4.70
2022-12-14T08:14:21.605Z,-4.80
2022-12-14T08:16:53.114Z,-4.70
2022-12-14T08:22:47.536Z,-4.80
2022-12-14T08:25:19.343Z,-4.70
2022-12-14T08:27:53.242Z,-4.60
2022-12-14T08:30:23.566Z,-4.50
2022-12-14T08:32:52.607Z,-4.40
2022-12-14T08:35:26.952Z,-4.30
2022-12-14T08:38:06.554Z,-4.20
2022-12-14T08:40:44.790Z,-4.10
2022-12-14T08:43:25.577Z,-4.00
2022-12-14T08:46:00.787Z,-4.00
2022-12-14T08:48:45.812Z,-4.00
2022-12-14T08:51:29.664Z,-4.00
2022-12-14T08:54:10.415Z,-4.10
2022-12-14T08:56:45.298Z,-4.10
2022-12-14T08:59:43.967Z,-4.10
2022-12-14T09:02:16.771Z,-4.10
2022-12-14T09:04:56.868Z,-4.20
2022-12-14T09:07:27.879Z,-3.90
2022-12-14T09:10:16.459Z,-3.90
2022-12-14T09:13:06.118Z,-3.80
2022-12-14T09:15:45.079Z,-3.80
2022-12-14T09:18:27.651Z,-3.80
2022-12-14T09:21:00.189Z,-3.80
2022-12-14T09:23:38.139Z,-3.80
2022-12-14T09:26:18.549Z,-3.60
2022-12-14T09:29:06.664Z,-3.30
2022-12-14T09:31:49.026Z,-3.30
2022-12-14T09:34:26.633Z,-3.20
2022-12-14T09:39:50.840Z,-3.40
2022-12-14T09:42:33.238Z,-3.50
2022-12-14T09:45:42.952Z,-3.30
2022-12-14T09:48:17.045Z,-3.30
2022-12-14T09:50:58.175Z,-3.30
2022-12-14T09:53:36.587Z,-3.30
2022-12-14T09:56:12.908Z,-3.30
2022-12-14T09:58:46.844Z,-3.20
2022-12-14T10:01:28.691Z,-3.10
2022-12-14T10:04:05.376Z,-2.90
2022-12-14T10:06:54.842Z,-2.80
2022-12-14T10:09:30.884Z,-2.80
2022-12-14T10:12:19.016Z,-2.80
2022-12-14T10:15:06.628Z,-2.80
2022-12-14T10:17:57.862Z,-2.80
2022-12-14T10:20:48.129Z,-2.70
2022-12-14T10:23:39.924Z,-2.70
2022-12-14T10:26:13.983Z,-2.60
2022-12-14T10:28:49.447Z,-2.50
2022-12-14T10:31:36.466Z,-2.40
2022-12-14T10:34:32.524Z,-2.10
2022-12-14T10:37:18.125Z,-2.10
2022-12-14T10:39:55.021Z,-2.20
2022-12-14T10:42:41.655Z,-2.30
2022-12-14T10:45:51.704Z,-2.40
2022-12-14T10:48:37.742Z,-2.30
2022-12-14T10:51:13.846Z,-2.40
2022-12-14T10:53:48.441Z,-2.50
2022-12-14T10:56:21.448Z,-2.40
2022-12-14T10:59:13.829Z,-2.10
2022-12-14T11:01:46.284Z,-2.00
2022-12-14T11:07:17.085Z,-2.00
2022-12-14T11:09:58.904Z,-1.90
2022-12-14T11:12:28.836Z,-2.00
2022-12-14T11:15:12.710Z,-2.00
2022-12-14T11:17:47.948Z,-1.90
2022-12-14T11:20:28.279Z,-1.80
2022-12-14T11:23:04.505Z,-1.80
2022-12-14T11:25:39.010Z,-1.70
2022-12-14T11:28:25.724Z,-1.70
2022-12-14T11:31:02.887Z,-1.80
2022-12-14T11:33:38.256Z,-1.80
2022-12-14T11:36:09.639Z,-1.90
2022-12-14T11:38:56.144Z,-1.90
2022-12-14T11:41:47.006Z,-1.90
2022-12-14T11:44:26.755Z,-2.00
2022-12-14T11:47:06.445Z,-2.10
2022-12-14T11:49:58.880Z,-2.00
2022-12-14T11:52:55.095Z,-2.00
2022-12-14T11:55:28.819Z,-1.90
2022-12-14T11:58:09.234Z,-1.70
2022-12-14T12:00:47.595Z,-1.70
2022-12-14T12:03:20.658Z,-1.60
2022-12-14T12:05:59.268Z,-1.50
2022-12-14T12:08:34.746Z,-1.40
2022-12-14T12:11:17.148Z,-1.20
2022-12-14T12:13:56.071Z,-1.30
2022-12-14T12:16:28.064Z,-1.30
2022-12-14T12:19:15.935Z,-1.20
2022-12-14T12:22:06.004Z,-1.40
2022-12-14T12:25:23.632Z,-1.50
2022-12-14T12:30:44.593Z,-1.50
2022-12-14T12:33:24.644Z,-1.50
2022-12-14T12:36:05.947Z,-1.60
2022-12-14T12:39:00.633Z,-1.60
2022-12-14T12:41:37.117Z,-1.70
2022-12-14T12:44:14.198Z,-1.70
2022-12-14T12:47:22.863Z,-1.70
2022-12-14T12:50:00.112Z,-1.50
2022-12-14T12:53:02.797Z,-0.80
2022-12-14T12:55:51.588Z,-0.80
2022-12-14T12:58:38.686Z,-1.20
2022-12-14T13:01:40.153Z,-1.40
2022-12-14T13:04:16.774Z,-1.50
2022-12-14T13:07:06.500Z,-1.50
2022-12-14T13:10:06.382Z,-1.70
2022-12-14T13:13:07.099Z,-1.80
2022-12-14T13:15:47.563Z,-1.70
2022-12-14T13:18:56.545Z,-1.60
2022-12-14T13:21:27.969Z,-1.70
2022-12-14T13:24:14.739Z,-1.60
2022-12-14T13:27:05.849Z,-1.60
2022-12-14T13:29:58.430Z,-1.70
2022-12-14T13:32:58.127Z,-1.70
2022-12-14T13:35:48.106Z,-1.60
2022-12-14T13:38:44.245Z,-1.60
2022-12-14T13:41:30.498Z,-1.70
2022-12-14T13:44:26.574Z,-1.70
2022-12-14T13:47:06.347Z,-1.70
2022-12-14T13:52:45.315Z,-2.00
2022-12-14T13:55:44.929Z,-2.00
2022-12-14T14:01:27.603Z,-1.90
2022-12-14T14:04:25.283Z,-1.80
2022-12-14T14:07:09.354Z,-1.80
2022-12-14T14:10:05.561Z,-1.80
2022-12-14T14:12:59.716Z,-1.80
2022-12-14T14:16:30.377Z,-1.80
2022-12-14T14:19:27.679Z,-1.70
2022-12-14T14:25:46.463Z,-1.80
2022-12-14T14:28:28.319Z,-1.70
2022-12-14T14:33:48.195Z,-1.70
2022-12-14T14:36:40.825Z,-1.60
2022-12-14T14:39:56.601Z,-1.60
2022-12-14T14:42:34.930Z,-1.70
2022-12-14T14:45:08.250Z,-1.60
2022-12-14T14:48:04.314Z,-1.60
2022-12-14T14:50:39.587Z,-1.60
2022-12-14T14:53:27.813Z,-1.70
2022-12-14T14:56:07.011Z,-1.70
2022-12-14T14:58:50.213Z,-1.70
2022-12-14T15:01:35.812Z,-1.70
2022-12-14T15:04:23.840Z,-1.70
2022-12-14T15:07:00.675Z,-1.60
2022-12-14T15:09:52.410Z,-1.70
2022-12-14T15:12:52.954Z,-1.50
2022-12-14T15:15:34.893Z,-1.60
2022-12-14T15:18:35.249Z,-1.60
2022-12-14T15:21:19.456Z,-1.60
2022-12-14T15:24:02.938Z,-1.60
2022-12-14T15:26:35.241Z,-1.60
2022-12-14T15:29:13.108Z,-1.50
2022-12-14T15:31:59.067Z,-1.60
2022-12-14T15:34:32.927Z,-1.60
2022-12-14T15:37:17.007Z,-1.50
2022-12-14T15:39:47.860Z,-1.60
2022-12-14T15:42:23.001Z,-1.60
2022-12-14T15:44:53.306Z,-1.60
2022-12-14T15:47:31.750Z,-1.70
2022-12-14T15:50:19.065Z,-1.60
2022-12-14T15:53:00.091Z,-1.60
2022-12-14T15:55:35.187Z,-1.70
2022-12-14T15:58:09.175Z,-1.70
2022-12-14T16:00:42.118Z,-1.70
2022-12-14T16:03:29.459Z,-1.70
2022-12-14T16:06:05.450Z,-1.60
2022-12-14T16:08:39.401Z,-1.40
2022-12-14T16:11:35.886Z,-1.40
2022-12-14T16:14:13.799Z,-1.30
2022-12-14T16:16:43.242Z,-1.30
2022-12-14T16:19:29.932Z,-1.40
2022-12-14T16:22:14.183Z,-1.40
2022-12-14T16:25:13.208Z,-1.40
2022-12-14T16:30:48.436Z,-1.50
2022-12-14T16:33:20.763Z,-1.40
2022-12-14T16:36:04.667Z,-1.40
2022-12-14T16:38:51.614Z,-1.40
2022-12-14T16:41:24.765Z,-1.40
2022-12-14T16:43:58.561Z,-1.50
2022-12-14T16:46:31.585Z,-1.50
2022-12-14T16:49:24.353Z,-1.40
2022-12-14T16:52:07.984Z,-1.50
2022-12-14T16:54:51.879Z,-1.50
2022-12-14T16:57:29.908Z,-1.50
2022-12-14T17:00:06.966Z,-1.60
2022-12-14T17:02:43.780Z,-1.50
2022-12-14T17:05:16.287Z,-1.60
2022-12-14T17:07:52.579Z,-1.60
2022-12-14T17:10:33.033Z,-1.60
2022-12-14T17:13:07.434Z,-1.60
2022-12-14T17:15:54.124Z,-1.60
2022-12-14T17:18:25.274Z,-1.60
2022-12-14T17:20:55.823Z,-1.60
2022-12-14T17:23:42.423Z,-1.60
2022-12-14T17:26:18.524Z,-1.60
2022-12-14T17:29:01.567Z,-1.60
2022-12-14T17:31:52.993Z,-1.70
2022-12-14T17:34:23.423Z,-1.60
2022-12-14T17:36:54.516Z,-1.70
2022-12-14T17:39:32.294Z,-1.70
2022-12-14T17:42:20.733Z,-1.80
2022-12-14T17:45:15.458Z,-1.70
2022-12-14T17:47:45.372Z,-1.60
2022-12-14T17:50:17.923Z,-1.80
2022-12-14T17:52:56.622Z,-1.90
2022-12-14T17:55:27.583Z,-1.90
2022-12-14T17:58:02.202Z,-2.00
2022-12-14T18:00:50.243Z,-2.00
2022-12-14T18:03:25.948Z,-2.00
2022-12-14T18:06:03.482Z,-2.00
2022-12-14T18:08:36.255Z,-2.00
2022-12-14T18:11:22.967Z,-1.90
2022-12-14T18:14:13.515Z,-1.90
2022-12-14T18:16:49.926Z,-1.90
2022-12-14T18:19:35.026Z,-2.00
2022-12-14T18:22:31.231Z,-2.10
2022-12-14T18:25:04.153Z,-2.00
2022-12-14T18:27:40.203Z,-2.20
2022-12-14T18:30:23.039Z,-2.30
2022-12-14T18:33:00.610Z,-2.30
2022-12-14T18:35:36.731Z,-2.30
2022-12-14T18:38:08.731Z,-2.30
2022-12-14T18:40:39.925Z,-2.30
2022-12-14T18:43:15.294Z,-2.30
2022-12-14T18:46:01.660Z,-2.20
2022-12-14T18:48:33.964Z,-2.20
2022-12-14T18:53:52.104Z,-2.30
2022-12-14T18:56:23.935Z,-2.30
2022-12-14T18:59:19.050Z,-2.20
2022-12-14T19:02:09.923Z,-2.40
2022-12-14T19:04:48.711Z,-2.50
2022-12-14T19:07:52.074Z,-2.40
2022-12-14T19:10:40.528Z,-2.40
2022-12-14T19:13:13.407Z,-2.50
2022-12-14T19:15:59.369Z,-2.70
2022-12-14T19:18:39.463Z,-2.80
2022-12-14T19:21:31.642Z,-2.80
2022-12-14T19:24:16.575Z,-2.70
2022-12-14T19:29:50.427Z,-2.70
2022-12-14T19:32:43.909Z,-2.70
2022-12-14T19:38:36.999Z,-2.80
2022-12-14T19:41:09.913Z,-2.80
2022-12-14T19:44:10.115Z,-2.80
2022-12-14T19:47:00.950Z,-2.90
2022-12-14T19:49:31.554Z,-2.90
2022-12-14T19:52:23.552Z,-3.00
2022-12-14T19:55:03.739Z,-3.00
2022-12-14T19:57:32.285Z,-3.00
2022-12-14T20:00:14.588Z,-3.10
2022-12-14T20:02:43.841Z,-3.00
2022-12-14T20:05:20.188Z,-3.00
2022-12-14T20:08:01.287Z,-3.10
2022-12-14T20:10:32.886Z,-2.90
2022-12-14T20:13:07.977Z,-3.20
2022-12-14T20:15:42.915Z,-3.20
2022-12-14T20:21:39.988Z,-3.20
2022-12-14T20:24:24.522Z,-3.20
2022-12-14T20:29:43.260Z,-3.00
2022-12-14T20:32:17.603Z,-3.10
2022-12-14T20:37:54.304Z,-3.30
2022-12-14T20:40:41.394Z,-3.20
2022-12-14T20:43:45.405Z,-3.20
2022-12-14T20:46:37.618Z,-3.30
2022-12-14T20:49:09.312Z,-3.40
2022-12-14T20:54:29.804Z,-3.50
2022-12-14T20:57:12.046Z,-3.60
2022-12-14T20:59:47.049Z,-3.50
2022-12-14T21:02:33.086Z,-3.20
2022-12-14T21:05:09.863Z,-3.50
2022-12-14T21:07:44.933Z,-3.50
2022-12-14T21:10:22.630Z,-3.50
2022-12-14T21:13:05.773Z,-3.60
2022-12-14T21:15:41.665Z,-3.60
2022-12-14T21:18:13.320Z,-3.70
2022-12-14T21:20:59.280Z,-3.70
2022-12-14T21:26:11.823Z,-3.70
2022-12-14T21:28:56.338Z,-3.60
2022-12-14T21:31:38.778Z,-3.60
2022-12-14T21:34:10.143Z,-3.70
2022-12-14T21:36:57.014Z,-3.60
2022-12-14T21:39:39.835Z,-3.60
2022-12-14T21:42:18.123Z,-3.70
2022-12-14T21:44:52.149Z,-3.80
2022-12-14T21:47:38.713Z,-3.90
2022-12-14T21:50:08.788Z,-3.80
2022-12-14T21:52:53.414Z,-3.90
2022-12-14T21:55:30.197Z,-3.50
2022-12-14T21:58:20.239Z,-3.90
2022-12-14T22:06:42.636Z,-3.90
2022-12-14T22:09:25.524Z,-3.60
2022-12-14T22:12:10.547Z,-3.90
2022-12-14T22:14:59.175Z,-3.90
2022-12-14T22:17:29.915Z,-4.00
2022-12-14T22:23:12.716Z,-4.00
2022-12-14T22:25:51.597Z,-4.00
2022-12-14T22:28:23.722Z,-4.00
2022-12-14T22:31:01.786Z,-4.00
2022-12-14T22:33:34.083Z,-4.10
2022-12-14T22:36:26.536Z,-4.20
2022-12-14T22:44:43.334Z,-4.10
2022-12-14T22:47:12.454Z,-4.20
2022-12-14T22:49:47.213Z,-4.20
2022-12-14T22:52:36.551Z,-4.50
2022-12-14T22:55:26.279Z,-4.30
2022-12-14T22:57:56.261Z,-4.30
2022-12-14T23:00:28.869Z,-4.30
2022-12-14T23:03:04.275Z,-4.30
2022-12-14T23:05:45.166Z,-4.50
2022-12-14T23:08:32.377Z,-4.50
2022-12-14T23:14:21.445Z,-4.60
2022-12-14T23:17:11.179Z,-4.70
2022-12-14T23:20:04.262Z,-4.80
2022-12-14T23:22:52.243Z,-4.80
2022-12-14T23:25:44.865Z,-4.80
2022-12-14T23:28:42.982Z,-4.90
2022-12-14T23:31:36.887Z,-4.80
2022-12-14T23:34:24.313Z,-4.80
2022-12-14T23:37:20.482Z,-4.90
2022-12-14T23:40:11.493Z,-4.80
2022-12-14T23:46:03.580Z,-4.90
2022-12-14T23:48:54.804Z,-5.00
2022-12-14T23:51:42.084Z,-5.10
2022-12-14T23:54:53.152Z,-5.10
2022-12-14T23:57:45.989Z,-5.00
